sensor_id;sensor_type;location;lat;lon;timestamp;pressure;altitude;pressure_sealevel;temperature;humidity
26087;BME280;13851;43.434;28.338;2022-07-06T00:01:21;99680.69;;;26.49;100.00
26087;BME280;13851;43.434;28.338;2022-07-06T00:03:47;99508.38;;;25.46;100.00
26087;BME280;13851;43.434;28.338;2022-07-06T00:06:13;99680.19;;;26.36;100.00
26087;BME280;13851;43.434;28.338;2022-07-06T00:08:39;99674.53;;;26.41;100.00
26087;BME280;13851;43.434;28.338;2022-07-06T00:11:05;99658.13;;;26.14;100.00
26087;BME280;13851;43.434;28.338;2022-07-06T00:13:31;99659.56;;;26.07;100.00
26087;BME280;13851;43.434;28.338;2022-07-06T00:15:57;99663.13;;;26.23;100.00
26087;BME280;13851;43.434;28.338;2022-07-06T00:18:22;99667.09;;;26.16;100.00
26087;BME280;13851;43.434;28.338;2022-07-06T00:20:48;99669.13;;;26.06;100.00
26087;BME280;13851;43.434;28.338;2022-07-06T00:23:13;99665.25;;;25.97;100.00
26087;BME280;13851;43.434;28.338;2022-07-06T00:25:39;99584.94;;;25.41;100.00
26087;BME280;13851;43.434;28.338;2022-07-06T00:28:05;99649.34;;;25.66;100.00
26087;BME280;13851;43.434;28.338;2022-07-06T00:30:30;99668.19;;;25.61;100.00
26087;BME280;13851;43.434;28.338;2022-07-06T00:32:56;99635.78;;;25.24;100.00
26087;BME280;13851;43.434;28.338;2022-07-06T00:35:24;99668.81;;;25.37;100.00
26087;BME280;13851;43.434;28.338;2022-07-06T00:37:50;99661.53;;;25.26;100.00
26087;BME280;13851;43.434;28.338;2022-07-06T00:40:17;99671.13;;;25.10;100.00
26087;BME280;13851;43.434;28.338;2022-07-06T00:42:44;99638.31;;;24.85;100.00
26087;BME280;13851;43.434;28.338;2022-07-06T00:45:11;99698.28;;;24.94;100.00
26087;BME280;13851;43.434;28.338;2022-07-06T00:47:38;99476.47;;;23.80;100.00
26087;BME280;13851;43.434;28.338;2022-07-06T00:50:06;99654.28;;;24.89;100.00
26087;BME280;13851;43.434;28.338;2022-07-06T00:52:52;99669.44;;;24.83;100.00
26087;BME280;13851;43.434;28.338;2022-07-06T00:55:21;99666.88;;;24.82;100.00
26087;BME280;13851;43.434;28.338;2022-07-06T00:57:48;99674.47;;;24.86;100.00
26087;BME280;13851;43.434;28.338;2022-07-06T01:00:16;99667.72;;;24.82;100.00
26087;BME280;13851;43.434;28.338;2022-07-06T01:02:43;99619.00;;;24.58;100.00
26087;BME280;13851;43.434;28.338;2022-07-06T01:05:12;99667.19;;;24.85;100.00
26087;BME280;13851;43.434;28.338;2022-07-06T01:07:39;99657.09;;;24.84;100.00
26087;BME280;13851;43.434;28.338;2022-07-06T01:10:08;99658.47;;;24.87;100.00
26087;BME280;13851;43.434;28.338;2022-07-06T01:12:34;99664.38;;;24.85;100.00
26087;BME280;13851;43.434;28.338;2022-07-06T01:15:12;99654.59;;;24.88;100.00
26087;BME280;13851;43.434;28.338;2022-07-06T01:17:39;99654.00;;;24.86;99.06
26087;BME280;13851;43.434;28.338;2022-07-06T01:20:18;99650.34;;;24.96;97.88
26087;BME280;13851;43.434;28.338;2022-07-06T01:22:45;99652.03;;;24.97;93.20
26087;BME280;13851;43.434;28.338;2022-07-06T01:25:11;99545.59;;;24.25;90.53
26087;BME280;13851;43.434;28.338;2022-07-06T01:27:39;99649.81;;;24.78;90.08
26087;BME280;13851;43.434;28.338;2022-07-06T01:30:10;99639.75;;;24.72;88.57
26087;BME280;13851;43.434;28.338;2022-07-06T01:32:36;99652.88;;;24.67;87.29
26087;BME280;13851;43.434;28.338;2022-07-06T01:35:03;99424.09;;;23.29;85.90
26087;BME280;13851;43.434;28.338;2022-07-06T01:37:30;99681.75;;;24.67;84.22
26087;BME280;13851;43.434;28.338;2022-07-06T01:39:59;99638.88;;;24.67;82.91
26087;BME280;13851;43.434;28.338;2022-07-06T01:42:26;99605.00;;;24.43;81.15
26087;BME280;13851;43.434;28.338;2022-07-06T01:44:52;99618.72;;;24.49;79.74
26087;BME280;13851;43.434;28.338;2022-07-06T01:47:18;99649.00;;;24.78;81.05
26087;BME280;13851;43.434;28.338;2022-07-06T01:49:43;99617.06;;;24.58;77.47
26087;BME280;13851;43.434;28.338;2022-07-06T01:52:09;99642.53;;;24.72;75.96
26087;BME280;13851;43.434;28.338;2022-07-06T01:54:34;99656.25;;;24.79;75.80
26087;BME280;13851;43.434;28.338;2022-07-06T01:57:00;99671.09;;;24.59;73.24
26087;BME280;13851;43.434;28.338;2022-07-06T01:59:25;99607.78;;;24.22;71.49
26087;BME280;13851;43.434;28.338;2022-07-06T02:01:51;99395.78;;;22.90;70.01
26087;BME280;13851;43.434;28.338;2022-07-06T02:04:16;99557.91;;;23.89;68.82
26087;BME280;13851;43.434;28.338;2022-07-06T02:06:42;99640.28;;;24.44;68.43
26087;BME280;13851;43.434;28.338;2022-07-06T02:09:08;99611.13;;;24.34;69.25
26087;BME280;13851;43.434;28.338;2022-07-06T02:11:33;99647.03;;;24.48;66.34
26087;BME280;13851;43.434;28.338;2022-07-06T02:13:59;99649.00;;;24.57;65.83
26087;BME280;13851;43.434;28.338;2022-07-06T02:16:24;99646.19;;;24.62;65.21
26087;BME280;13851;43.434;28.338;2022-07-06T02:18:50;99611.75;;;24.47;64.68
26087;BME280;13851;43.434;28.338;2022-07-06T02:21:15;99634.16;;;24.62;64.03
26087;BME280;13851;43.434;28.338;2022-07-06T02:23:41;99644.78;;;24.75;64.95
26087;BME280;13851;43.434;28.338;2022-07-06T02:26:06;99641.97;;;24.75;62.12
26087;BME280;13851;43.434;28.338;2022-07-06T02:28:32;99646.72;;;24.80;61.80
26087;BME280;13851;43.434;28.338;2022-07-06T02:30:57;99555.97;;;24.25;61.52
26087;BME280;13851;43.434;28.338;2022-07-06T02:33:24;99634.16;;;24.72;60.88
26087;BME280;13851;43.434;28.338;2022-07-06T02:35:50;99629.63;;;24.66;60.98
26087;BME280;13851;43.434;28.338;2022-07-06T02:38:15;99631.91;;;24.69;59.22
26087;BME280;13851;43.434;28.338;2022-07-06T02:40:41;99650.66;;;24.84;59.34
26087;BME280;13851;43.434;28.338;2022-07-06T02:43:06;99619.56;;;24.65;59.25
26087;BME280;13851;43.434;28.338;2022-07-06T02:45:32;99429.75;;;23.55;58.41
26087;BME280;13851;43.434;28.338;2022-07-06T02:47:58;99644.75;;;24.85;57.43
26087;BME280;13851;43.434;28.338;2022-07-06T02:50:24;99608.94;;;24.62;56.76
26087;BME280;13851;43.434;28.338;2022-07-06T02:52:50;99647.84;;;24.89;56.73
26087;BME280;13851;43.434;28.338;2022-07-06T02:55:16;99426.41;;;23.63;57.10
26087;BME280;13851;43.434;28.338;2022-07-06T02:57:43;99631.28;;;24.98;55.65
26087;BME280;13851;43.434;28.338;2022-07-06T03:00:09;99617.88;;;24.89;55.73
26087;BME280;13851;43.434;28.338;2022-07-06T03:02:37;99630.75;;;24.96;55.00
26087;BME280;13851;43.434;28.338;2022-07-06T03:05:03;99622.03;;;24.92;55.77
26087;BME280;13851;43.434;28.338;2022-07-06T03:07:30;99632.41;;;24.97;55.30
26087;BME280;13851;43.434;28.338;2022-07-06T03:09:55;99437.59;;;23.83;55.31
26087;BME280;13851;43.434;28.338;2022-07-06T03:12:21;99629.63;;;24.97;55.20
26087;BME280;13851;43.434;28.338;2022-07-06T03:14:47;99566.34;;;24.60;54.99
26087;BME280;13851;43.434;28.338;2022-07-06T03:17:17;99627.38;;;25.04;55.29
26087;BME280;13851;43.434;28.338;2022-07-06T03:19:43;99440.09;;;23.95;55.53
26087;BME280;13851;43.434;28.338;2022-07-06T03:22:09;99571.09;;;24.80;55.34
26087;BME280;13851;43.434;28.338;2022-07-06T03:24:35;99625.66;;;25.23;54.94
26087;BME280;13851;43.434;28.338;2022-07-06T03:27:02;99618.38;;;25.22;55.45
26087;BME280;13851;43.434;28.338;2022-07-06T03:29:32;99621.72;;;25.34;55.03
26087;BME280;13851;43.434;28.338;2022-07-06T03:31:58;99625.63;;;25.33;55.94
26087;BME280;13851;43.434;28.338;2022-07-06T03:34:24;99624.50;;;25.45;55.93
26087;BME280;13851;43.434;28.338;2022-07-06T03:36:49;99601.81;;;25.31;54.97
26087;BME280;13851;43.434;28.338;2022-07-06T03:39:15;99623.84;;;25.58;55.32
26087;BME280;13851;43.434;28.338;2022-07-06T03:41:40;99620.47;;;25.66;56.03
26087;BME280;13851;43.434;28.338;2022-07-06T03:44:06;99621.81;;;25.74;55.87
26087;BME280;13851;43.434;28.338;2022-07-06T03:46:35;99621.81;;;25.79;56.51
26087;BME280;13851;43.434;28.338;2022-07-06T03:49:00;99617.88;;;25.85;57.15
26087;BME280;13851;43.434;28.338;2022-07-06T03:51:26;99605.75;;;25.89;57.21
26087;BME280;13851;43.434;28.338;2022-07-06T03:53:52;99615.81;;;26.01;57.74
26087;BME280;13851;43.434;28.338;2022-07-06T03:56:18;99617.44;;;26.12;58.18
26087;BME280;13851;43.434;28.338;2022-07-06T03:58:58;99624.41;;;26.14;57.89
26087;BME280;13851;43.434;28.338;2022-07-06T04:01:24;99588.00;;;26.04;56.72
26087;BME280;13851;43.434;28.338;2022-07-06T04:03:50;99609.25;;;26.15;56.60
26087;BME280;13851;43.434;28.338;2022-07-06T04:06:15;99609.97;;;26.36;56.75
26087;BME280;13851;43.434;28.338;2022-07-06T04:08:41;99622.25;;;26.46;56.76
26087;BME280;13851;43.434;28.338;2022-07-06T04:11:06;99522.09;;;25.97;56.49
26087;BME280;13851;43.434;28.338;2022-07-06T04:13:32;99637.31;;;26.60;56.64
26087;BME280;13851;43.434;28.338;2022-07-06T04:15:58;99622.34;;;26.69;57.01
26087;BME280;13851;43.434;28.338;2022-07-06T04:18:23;99610.19;;;26.79;58.03
26087;BME280;13851;43.434;28.338;2022-07-06T04:20:49;99617.97;;;26.87;60.23
26087;BME280;13851;43.434;28.338;2022-07-06T04:23:15;99576.44;;;26.79;59.53
26087;BME280;13851;43.434;28.338;2022-07-06T04:25:41;99611.78;;;27.19;59.72
26087;BME280;13851;43.434;28.338;2022-07-06T04:28:07;99602.97;;;27.26;60.54
26087;BME280;13851;43.434;28.338;2022-07-06T04:30:33;99581.72;;;27.15;61.01
26087;BME280;13851;43.434;28.338;2022-07-06T04:32:58;99600.09;;;27.55;61.90
26087;BME280;13851;43.434;28.338;2022-07-06T04:35:24;99519.91;;;27.10;62.67
26087;BME280;13851;43.434;28.338;2022-07-06T04:37:49;99603.75;;;27.56;64.08
26087;BME280;13851;43.434;28.338;2022-07-06T04:40:15;99602.75;;;27.89;66.05
26087;BME280;13851;43.434;28.338;2022-07-06T04:42:41;99607.38;;;27.99;67.94
26087;BME280;13851;43.434;28.338;2022-07-06T04:45:07;99608.38;;;28.08;69.27
26087;BME280;13851;43.434;28.338;2022-07-06T04:47:33;99578.72;;;27.97;69.53
26087;BME280;13851;43.434;28.338;2022-07-06T04:50:00;99606.25;;;28.19;70.65
26087;BME280;13851;43.434;28.338;2022-07-06T04:52:25;99568.72;;;28.05;73.06
26087;BME280;13851;43.434;28.338;2022-07-06T04:54:51;99601.25;;;28.35;75.21
26087;BME280;13851;43.434;28.338;2022-07-06T04:57:16;99634.06;;;28.44;76.27
26087;BME280;13851;43.434;28.338;2022-07-06T04:59:42;99396.13;;;27.15;76.01
26087;BME280;13851;43.434;28.338;2022-07-06T05:02:07;99614.47;;;28.53;78.08
26087;BME280;13851;43.434;28.338;2022-07-06T05:04:33;99614.91;;;28.60;79.54
26087;BME280;13851;43.434;28.338;2022-07-06T05:07:15;99622.91;;;28.72;79.36
26087;BME280;13851;43.434;28.338;2022-07-06T05:09:43;99618.09;;;28.72;78.86
26087;BME280;13851;43.434;28.338;2022-07-06T05:12:09;99596.25;;;28.64;76.86
26087;BME280;13851;43.434;28.338;2022-07-06T05:14:35;99597.22;;;28.73;76.84
26087;BME280;13851;43.434;28.338;2022-07-06T05:17:01;99467.34;;;28.05;76.78
26087;BME280;13851;43.434;28.338;2022-07-06T05:19:34;99625.72;;;29.05;76.89
26087;BME280;13851;43.434;28.338;2022-07-06T05:22:00;99622.81;;;29.10;79.07
26087;BME280;13851;43.434;28.338;2022-07-06T05:24:25;99562.56;;;28.87;79.72
26087;BME280;13851;43.434;28.338;2022-07-06T05:26:51;99561.94;;;28.90;80.38
26087;BME280;13851;43.434;28.338;2022-07-06T05:29:16;99620.53;;;29.39;82.10
26087;BME280;13851;43.434;28.338;2022-07-06T05:31:42;99580.59;;;29.32;83.42
26087;BME280;13851;43.434;28.338;2022-07-06T05:34:08;99612.19;;;29.62;82.07
26087;BME280;13851;43.434;28.338;2022-07-06T05:36:33;99613.16;;;29.71;79.86
26087;BME280;13851;43.434;28.338;2022-07-06T05:38:59;99613.44;;;29.83;79.04
26087;BME280;13851;43.434;28.338;2022-07-06T05:41:24;99596.47;;;29.83;77.36
26087;BME280;13851;43.434;28.338;2022-07-06T05:43:50;99649.19;;;30.01;75.69
26087;BME280;13851;43.434;28.338;2022-07-06T05:46:15;99606.38;;;30.08;69.91
26087;BME280;13851;43.434;28.338;2022-07-06T05:48:41;99600.84;;;30.03;67.85
26087;BME280;13851;43.434;28.338;2022-07-06T05:51:24;99605.22;;;30.23;67.74
26087;BME280;13851;43.434;28.338;2022-07-06T05:53:50;99621.16;;;30.41;67.86
26087;BME280;13851;43.434;28.338;2022-07-06T05:56:15;99616.34;;;30.06;68.28
26087;BME280;13851;43.434;28.338;2022-07-06T05:58:41;99606.03;;;30.10;71.29
26087;BME280;13851;43.434;28.338;2022-07-06T06:01:06;99596.84;;;30.18;69.57
26087;BME280;13851;43.434;28.338;2022-07-06T06:03:33;99620.50;;;30.22;67.63
26087;BME280;13851;43.434;28.338;2022-07-06T06:05:59;99575.22;;;29.99;68.04
26087;BME280;13851;43.434;28.338;2022-07-06T06:08:25;99611.66;;;30.37;68.29
26087;BME280;13851;43.434;28.338;2022-07-06T06:10:52;99595.84;;;30.36;68.61
26087;BME280;13851;43.434;28.338;2022-07-06T06:13:18;99579.50;;;30.55;64.95
26087;BME280;13851;43.434;28.338;2022-07-06T06:15:43;99612.81;;;30.81;65.03
26087;BME280;13851;43.434;28.338;2022-07-06T06:18:09;99592.03;;;30.77;63.02
26087;BME280;13851;43.434;28.338;2022-07-06T06:20:35;99609.41;;;30.93;62.04
26087;BME280;13851;43.434;28.338;2022-07-06T06:23:01;99611.44;;;31.01;58.63
26087;BME280;13851;43.434;28.338;2022-07-06T06:25:33;99614.66;;;31.08;58.95
26087;BME280;13851;43.434;28.338;2022-07-06T06:28:00;99624.13;;;31.03;58.87
26087;BME280;13851;43.434;28.338;2022-07-06T06:30:26;99613.16;;;31.11;60.91
26087;BME280;13851;43.434;28.338;2022-07-06T06:32:52;99612.88;;;31.21;60.65
26087;BME280;13851;43.434;28.338;2022-07-06T06:35:28;99611.59;;;31.27;57.45
26087;BME280;13851;43.434;28.338;2022-07-06T06:37:54;99602.59;;;31.25;57.91
26087;BME280;13851;43.434;28.338;2022-07-06T06:40:19;99398.81;;;30.06;60.94
26087;BME280;13851;43.434;28.338;2022-07-06T06:42:45;99604.91;;;31.23;58.63
26087;BME280;13851;43.434;28.338;2022-07-06T06:45:10;99591.91;;;31.22;59.16
26087;BME280;13851;43.434;28.338;2022-07-06T06:47:36;99547.50;;;30.91;58.24
26087;BME280;13851;43.434;28.338;2022-07-06T06:50:02;99596.31;;;30.97;60.10
26087;BME280;13851;43.434;28.338;2022-07-06T06:52:27;99593.66;;;30.33;62.25
26087;BME280;13851;43.434;28.338;2022-07-06T06:54:53;99575.81;;;30.10;68.79
26087;BME280;13851;43.434;28.338;2022-07-06T06:57:18;99598.59;;;30.27;69.36
26087;BME280;13851;43.434;28.338;2022-07-06T06:59:44;99599.47;;;30.14;66.00
26087;BME280;13851;43.434;28.338;2022-07-06T07:02:09;99452.72;;;28.95;69.16
26087;BME280;13851;43.434;28.338;2022-07-06T07:04:35;99560.41;;;29.52;78.99
26087;BME280;13851;43.434;28.338;2022-07-06T07:07:00;99566.50;;;29.32;90.51
26087;BME280;13851;43.434;28.338;2022-07-06T07:09:26;99600.16;;;29.42;97.34
26087;BME280;13851;43.434;28.338;2022-07-06T07:11:51;99586.44;;;29.22;95.74
26087;BME280;13851;43.434;28.338;2022-07-06T07:14:17;99581.09;;;29.07;98.12
26087;BME280;13851;43.434;28.338;2022-07-06T07:16:42;99610.06;;;29.12;100.00
26087;BME280;13851;43.434;28.338;2022-07-06T07:19:08;99604.25;;;28.90;100.00
26087;BME280;13851;43.434;28.338;2022-07-06T07:21:34;99508.47;;;28.06;100.00
26087;BME280;13851;43.434;28.338;2022-07-06T07:23:59;99598.06;;;28.74;100.00
26087;BME280;13851;43.434;28.338;2022-07-06T07:26:25;99614.44;;;28.72;100.00
26087;BME280;13851;43.434;28.338;2022-07-06T07:28:50;99610.59;;;28.82;100.00
26087;BME280;13851;43.434;28.338;2022-07-06T07:31:16;99608.25;;;28.70;100.00
26087;BME280;13851;43.434;28.338;2022-07-06T07:33:41;99578.44;;;28.50;100.00
26087;BME280;13851;43.434;28.338;2022-07-06T07:36:07;99606.16;;;28.62;100.00
26087;BME280;13851;43.434;28.338;2022-07-06T07:38:33;99601.63;;;28.80;100.00
26087;BME280;13851;43.434;28.338;2022-07-06T07:40:58;99589.00;;;28.77;100.00
26087;BME280;13851;43.434;28.338;2022-07-06T07:43:24;99610.81;;;28.85;100.00
26087;BME280;13851;43.434;28.338;2022-07-06T07:45:49;99606.91;;;28.67;100.00
26087;BME280;13851;43.434;28.338;2022-07-06T07:48:15;99577.16;;;28.05;100.00
26087;BME280;13851;43.434;28.338;2022-07-06T07:50:42;99614.50;;;28.34;100.00
26087;BME280;13851;43.434;28.338;2022-07-06T07:53:08;99650.34;;;28.29;100.00
26087;BME280;13851;43.434;28.338;2022-07-06T07:55:33;99605.56;;;28.27;100.00
26087;BME280;13851;43.434;28.338;2022-07-06T07:57:59;99613.47;;;28.25;100.00
26087;BME280;13851;43.434;28.338;2022-07-06T08:00:25;99610.97;;;28.23;100.00
26087;BME280;13851;43.434;28.338;2022-07-06T08:02:54;99571.47;;;27.72;100.00
26087;BME280;13851;43.434;28.338;2022-07-06T08:05:20;99606.78;;;28.02;100.00
26087;BME280;13851;43.434;28.338;2022-07-06T08:07:45;99600.25;;;28.07;100.00
26087;BME280;13851;43.434;28.338;2022-07-06T08:10:11;99374.22;;;26.69;100.00
26087;BME280;13851;43.434;28.338;2022-07-06T08:12:37;99624.53;;;28.03;100.00
26087;BME280;13851;43.434;28.338;2022-07-06T08:15:04;99616.28;;;27.87;100.00
26087;BME280;13851;43.434;28.338;2022-07-06T08:17:30;99606.78;;;27.59;100.00
26087;BME280;13851;43.434;28.338;2022-07-06T08:19:56;99402.34;;;26.16;100.00
26087;BME280;13851;43.434;28.338;2022-07-06T08:22:22;99624.16;;;27.18;100.00
26087;BME280;13851;43.434;28.338;2022-07-06T08:24:48;99419.44;;;25.90;100.00
26087;BME280;13851;43.434;28.338;2022-07-06T08:27:14;99412.72;;;25.86;100.00
26087;BME280;13851;43.434;28.338;2022-07-06T08:29:40;99626.44;;;27.40;100.00
26087;BME280;13851;43.434;28.338;2022-07-06T08:32:05;99605.03;;;27.63;100.00
26087;BME280;13851;43.434;28.338;2022-07-06T08:34:31;99619.34;;;27.91;100.00
26087;BME280;13851;43.434;28.338;2022-07-06T08:36:56;99581.16;;;27.85;100.00
26087;BME280;13851;43.434;28.338;2022-07-06T08:39:22;99500.88;;;27.26;100.00
26087;BME280;13851;43.434;28.338;2022-07-06T08:41:48;99632.72;;;27.99;100.00
26087;BME280;13851;43.434;28.338;2022-07-06T08:44:15;99638.75;;;27.92;100.00
26087;BME280;13851;43.434;28.338;2022-07-06T08:46:41;99638.59;;;28.03;100.00
26087;BME280;13851;43.434;28.338;2022-07-06T08:49:09;99636.03;;;28.06;100.00
26087;BME280;13851;43.434;28.338;2022-07-06T08:51:37;99643.44;;;27.78;100.00
26087;BME280;13851;43.434;28.338;2022-07-06T08:54:04;99635.22;;;27.82;100.00
26087;BME280;13851;43.434;28.338;2022-07-06T08:56:30;99599.97;;;27.41;100.00
26087;BME280;13851;43.434;28.338;2022-07-06T08:58:56;99634.22;;;27.72;100.00
26087;BME280;13851;43.434;28.338;2022-07-06T09:01:22;99640.19;;;28.09;100.00
26087;BME280;13851;43.434;28.338;2022-07-06T09:03:51;99594.97;;;27.38;100.00
26087;BME280;13851;43.434;28.338;2022-07-06T09:06:26;99629.59;;;27.58;100.00
26087;BME280;13851;43.434;28.338;2022-07-06T09:08:55;99602.25;;;27.39;100.00
26087;BME280;13851;43.434;28.338;2022-07-06T09:11:22;99638.06;;;27.82;100.00
26087;BME280;13851;43.434;28.338;2022-07-06T09:13:50;99573.63;;;27.32;100.00
26087;BME280;13851;43.434;28.338;2022-07-06T09:16:16;99595.81;;;27.58;100.00
26087;BME280;13851;43.434;28.338;2022-07-06T09:18:46;99630.47;;;27.53;100.00
26087;BME280;13851;43.434;28.338;2022-07-06T09:21:26;99654.47;;;27.75;100.00
26087;BME280;13851;43.434;28.338;2022-07-06T09:23:56;99639.19;;;27.99;100.00
26087;BME280;13851;43.434;28.338;2022-07-06T09:26:24;99636.38;;;27.99;100.00
26087;BME280;13851;43.434;28.338;2022-07-06T09:28:50;99587.75;;;27.51;100.00
26087;BME280;13851;43.434;28.338;2022-07-06T09:31:16;99609.09;;;27.33;100.00
26087;BME280;13851;43.434;28.338;2022-07-06T09:34:04;99627.28;;;27.65;100.00
26087;BME280;13851;43.434;28.338;2022-07-06T09:36:48;99627.69;;;27.77;100.00
26087;BME280;13851;43.434;28.338;2022-07-06T09:39:34;99625.81;;;28.29;100.00
26087;BME280;13851;43.434;28.338;2022-07-06T09:42:01;99587.53;;;27.71;100.00
26087;BME280;13851;43.434;28.338;2022-07-06T09:44:37;99630.69;;;27.86;100.00
26087;BME280;13851;43.434;28.338;2022-07-06T09:47:08;99617.16;;;28.07;100.00
26087;BME280;13851;43.434;28.338;2022-07-06T09:49:34;99629.94;;;28.18;100.00
26087;BME280;13851;43.434;28.338;2022-07-06T09:52:05;99630.78;;;28.18;93.85
26087;BME280;13851;43.434;28.338;2022-07-06T09:54:32;99629.56;;;28.43;100.00
26087;BME280;13851;43.434;28.338;2022-07-06T09:56:58;99606.34;;;28.52;100.00
26087;BME280;13851;43.434;28.338;2022-07-06T09:59:27;99619.59;;;28.84;96.02
26087;BME280;13851;43.434;28.338;2022-07-06T10:01:56;99623.28;;;28.65;97.14
26087;BME280;13851;43.434;28.338;2022-07-06T10:04:23;99601.13;;;28.59;100.00
26087;BME280;13851;43.434;28.338;2022-07-06T10:06:49;99617.78;;;28.41;99.23
26087;BME280;13851;43.434;28.338;2022-07-06T10:09:16;99613.03;;;28.18;95.73
26087;BME280;13851;43.434;28.338;2022-07-06T10:11:50;99637.09;;;28.29;100.00
26087;BME280;13851;43.434;28.338;2022-07-06T10:14:27;99440.16;;;27.01;100.00
26087;BME280;13851;43.434;28.338;2022-07-06T10:16:55;99611.38;;;28.17;100.00
26087;BME280;13851;43.434;28.338;2022-07-06T10:19:21;99605.19;;;28.15;99.05
26087;BME280;13851;43.434;28.338;2022-07-06T10:21:47;99613.34;;;28.35;95.99
26087;BME280;13851;43.434;28.338;2022-07-06T10:24:14;99606.84;;;28.54;80.60
26087;BME280;13851;43.434;28.338;2022-07-06T10:26:41;99443.34;;;27.56;86.55
26087;BME280;13851;43.434;28.338;2022-07-06T10:29:07;99571.78;;;28.27;100.00
26087;BME280;13851;43.434;28.338;2022-07-06T10:31:35;99602.94;;;28.68;89.00
26087;BME280;13851;43.434;28.338;2022-07-06T10:34:04;99627.56;;;28.63;95.06
26087;BME280;13851;43.434;28.338;2022-07-06T10:36:37;99595.25;;;28.41;97.03
26087;BME280;13851;43.434;28.338;2022-07-06T10:39:03;99574.97;;;28.39;84.51
26087;BME280;13851;43.434;28.338;2022-07-06T10:41:48;99576.78;;;28.30;91.02
26087;BME280;13851;43.434;28.338;2022-07-06T10:44:20;99591.88;;;28.39;98.45
26087;BME280;13851;43.434;28.338;2022-07-06T10:46:57;99528.44;;;28.23;100.00
26087;BME280;13851;43.434;28.338;2022-07-06T10:49:25;99591.38;;;29.03;92.29
26087;BME280;13851;43.434;28.338;2022-07-06T10:51:50;99555.97;;;29.24;83.97
26087;BME280;13851;43.434;28.338;2022-07-06T10:54:18;99584.56;;;29.72;81.53
26087;BME280;13851;43.434;28.338;2022-07-06T10:56:46;99584.16;;;29.51;78.52
26087;BME280;13851;43.434;28.338;2022-07-06T11:02:17;99582.19;;;29.38;78.90
26087;BME280;13851;43.434;28.338;2022-07-06T11:04:48;99582.41;;;29.28;71.64
26087;BME280;13851;43.434;28.338;2022-07-06T11:07:19;99585.22;;;29.28;74.34
26087;BME280;13851;43.434;28.338;2022-07-06T11:09:56;99607.50;;;29.43;76.86
26087;BME280;13851;43.434;28.338;2022-07-06T11:12:22;99569.63;;;29.31;71.54
26087;BME280;13851;43.434;28.338;2022-07-06T11:14:50;99556.88;;;29.06;78.97
26087;BME280;13851;43.434;28.338;2022-07-06T11:17:17;99548.63;;;28.95;77.94
26087;BME280;13851;43.434;28.338;2022-07-06T11:19:57;99557.88;;;28.82;71.68
26087;BME280;13851;43.434;28.338;2022-07-06T11:22:24;99582.09;;;29.43;72.64
26087;BME280;13851;43.434;28.338;2022-07-06T11:24:51;99573.34;;;29.95;66.61
26087;BME280;13851;43.434;28.338;2022-07-06T11:27:22;99569.84;;;30.12;91.95
26087;BME280;13851;43.434;28.338;2022-07-06T11:29:48;99575.03;;;30.32;86.33
26087;BME280;13851;43.434;28.338;2022-07-06T11:32:14;99548.94;;;30.13;86.53
26087;BME280;13851;43.434;28.338;2022-07-06T11:34:44;99560.72;;;29.78;97.65
26087;BME280;13851;43.434;28.338;2022-07-06T11:37:10;99566.00;;;29.58;100.00
26087;BME280;13851;43.434;28.338;2022-07-06T11:39:39;99518.97;;;29.25;100.00
26087;BME280;13851;43.434;28.338;2022-07-06T11:42:06;99400.72;;;28.46;96.11
26087;BME280;13851;43.434;28.338;2022-07-06T11:44:34;99514.69;;;29.00;97.71
26087;BME280;13851;43.434;28.338;2022-07-06T11:47:00;99553.66;;;29.26;100.00
26087;BME280;13851;43.434;28.338;2022-07-06T11:49:29;99555.44;;;29.49;100.00
26087;BME280;13851;43.434;28.338;2022-07-06T11:51:55;99552.34;;;30.10;100.00
26087;BME280;13851;43.434;28.338;2022-07-06T11:54:23;99489.34;;;29.50;100.00
26087;BME280;13851;43.434;28.338;2022-07-06T11:56:50;99555.75;;;29.62;100.00
26087;BME280;13851;43.434;28.338;2022-07-06T11:59:25;99533.38;;;29.10;100.00
26087;BME280;13851;43.434;28.338;2022-07-06T12:04:34;99550.53;;;29.69;96.70
26087;BME280;13851;43.434;28.338;2022-07-06T12:07:11;99545.28;;;29.35;100.00
26087;BME280;13851;43.434;28.338;2022-07-06T12:09:39;99487.25;;;29.70;100.00
26087;BME280;13851;43.434;28.338;2022-07-06T12:12:06;99548.28;;;30.83;96.05
26087;BME280;13851;43.434;28.338;2022-07-06T12:14:34;99561.16;;;30.22;98.54
26087;BME280;13851;43.434;28.338;2022-07-06T12:17:11;99549.25;;;29.47;100.00
26087;BME280;13851;43.434;28.338;2022-07-06T12:19:39;99544.44;;;29.20;100.00
26087;BME280;13851;43.434;28.338;2022-07-06T12:22:06;99536.81;;;29.35;100.00
26087;BME280;13851;43.434;28.338;2022-07-06T12:24:33;99342.72;;;28.13;100.00
26087;BME280;13851;43.434;28.338;2022-07-06T12:27:14;99540.50;;;29.08;100.00
26087;BME280;13851;43.434;28.338;2022-07-06T12:29:40;99536.72;;;28.98;100.00
26087;BME280;13851;43.434;28.338;2022-07-06T12:32:06;99536.31;;;29.05;100.00
26087;BME280;13851;43.434;28.338;2022-07-06T12:34:32;99385.47;;;28.34;100.00
26087;BME280;13851;43.434;28.338;2022-07-06T12:37:08;99531.63;;;29.28;100.00
26087;BME280;13851;43.434;28.338;2022-07-06T12:39:47;99530.44;;;29.01;100.00
26087;BME280;13851;43.434;28.338;2022-07-06T12:42:16;99489.88;;;28.70;100.00
26087;BME280;13851;43.434;28.338;2022-07-06T12:44:44;99520.00;;;29.16;100.00
26087;BME280;13851;43.434;28.338;2022-07-06T12:47:11;99508.31;;;29.09;100.00
26087;BME280;13851;43.434;28.338;2022-07-06T12:49:38;99518.13;;;29.25;100.00
26087;BME280;13851;43.434;28.338;2022-07-06T12:52:11;99528.16;;;29.04;100.00